sensor_id;sensor_type;location;lat;lon;timestamp;P1;durP1;ratioP1;P2;durP2;ratioP2
19004;SDS011;9635;52.078;8.648;2023-04-15T00:03:39;13.63;;;7.05;;
19004;SDS011;9635;52.078;8.648;2023-04-15T00:08:43;10.35;;;6.53;;
19004;SDS011;9635;52.078;8.648;2023-04-15T00:13:46;8.70;;;6.45;;
19004;SDS011;9635;52.078;8.648;2023-04-15T00:18:49;10.57;;;6.90;;
19004;SDS011;9635;52.078;8.648;2023-04-15T00:23:54;13.32;;;6.82;;
19004;SDS011;9635;52.078;8.648;2023-04-15T00:28:57;8.23;;;6.80;;
19004;SDS011;9635;52.078;8.648;2023-04-15T00:34:00;9.93;;;7.57;;
19004;SDS011;9635;52.078;8.648;2023-04-15T00:39:05;10.38;;;7.45;;
19004;SDS011;9635;52.078;8.648;2023-04-15T00:44:08;11.43;;;8.35;;
19004;SDS011;9635;52.078;8.648;2023-04-15T00:49:11;12.40;;;8.95;;
19004;SDS011;9635;52.078;8.648;2023-04-15T00:54:16;11.82;;;8.00;;
19004;SDS011;9635;52.078;8.648;2023-04-15T00:59:19;14.50;;;9.50;;
19004;SDS011;9635;52.078;8.648;2023-04-15T01:04:23;11.20;;;8.32;;
19004;SDS011;9635;52.078;8.648;2023-04-15T01:09:28;12.15;;;9.45;;
19004;SDS011;9635;52.078;8.648;2023-04-15T01:14:31;13.30;;;9.75;;
19004;SDS011;9635;52.078;8.648;2023-04-15T01:19:35;12.65;;;9.40;;
19004;SDS011;9635;52.078;8.648;2023-04-15T01:24:39;14.88;;;10.05;;
19004;SDS011;9635;52.078;8.648;2023-04-15T01:29:45;12.45;;;8.85;;
19004;SDS011;9635;52.078;8.648;2023-04-15T01:34:48;11.70;;;9.77;;
19004;SDS011;9635;52.078;8.648;2023-04-15T01:39:51;14.63;;;9.60;;
19004;SDS011;9635;52.078;8.648;2023-04-15T01:44:57;14.88;;;9.57;;
19004;SDS011;9635;52.078;8.648;2023-04-15T01:50:00;12.13;;;9.77;;
19004;SDS011;9635;52.078;8.648;2023-04-15T01:55:03;14.05;;;10.30;;
19004;SDS011;9635;52.078;8.648;2023-04-15T02:00:10;12.90;;;9.50;;
19004;SDS011;9635;52.078;8.648;2023-04-15T02:05:16;15.02;;;10.48;;
19004;SDS011;9635;52.078;8.648;2023-04-15T02:10:21;15.40;;;10.30;;
19004;SDS011;9635;52.078;8.648;2023-04-15T02:15:25;13.48;;;10.45;;
19004;SDS011;9635;52.078;8.648;2023-04-15T02:20:28;13.40;;;9.75;;
19004;SDS011;9635;52.078;8.648;2023-04-15T02:25:32;15.75;;;10.35;;
19004;SDS011;9635;52.078;8.648;2023-04-15T02:30:39;13.27;;;9.55;;
19004;SDS011;9635;52.078;8.648;2023-04-15T02:35:42;13.98;;;9.70;;
19004;SDS011;9635;52.078;8.648;2023-04-15T02:40:45;15.35;;;9.63;;
19004;SDS011;9635;52.078;8.648;2023-04-15T02:45:51;14.00;;;9.32;;
19004;SDS011;9635;52.078;8.648;2023-04-15T02:51:09;12.07;;;9.63;;
19004;SDS011;9635;52.078;8.648;2023-04-15T02:56:13;13.93;;;10.05;;
19004;SDS011;9635;52.078;8.648;2023-04-15T03:01:18;14.50;;;9.40;;
19004;SDS011;9635;52.078;8.648;2023-04-15T03:06:21;14.05;;;9.48;;
19004;SDS011;9635;52.078;8.648;2023-04-15T03:11:25;15.52;;;9.32;;
19004;SDS011;9635;52.078;8.648;2023-04-15T03:16:29;11.48;;;8.95;;
19004;SDS011;9635;52.078;8.648;2023-04-15T03:21:32;11.77;;;9.25;;
19004;SDS011;9635;52.078;8.648;2023-04-15T03:26:36;13.13;;;9.93;;
19004;SDS011;9635;52.078;8.648;2023-04-15T03:31:46;12.90;;;9.82;;
19004;SDS011;9635;52.078;8.648;2023-04-15T03:36:50;16.90;;;10.32;;
19004;SDS011;9635;52.078;8.648;2023-04-15T03:41:53;15.98;;;10.90;;
19004;SDS011;9635;52.078;8.648;2023-04-15T03:46:58;14.73;;;11.85;;
19004;SDS011;9635;52.078;8.648;2023-04-15T03:52:01;18.08;;;10.95;;
19004;SDS011;9635;52.078;8.648;2023-04-15T03:57:03;15.25;;;10.50;;
19004;SDS011;9635;52.078;8.648;2023-04-15T04:02:08;15.95;;;10.98;;
19004;SDS011;9635;52.078;8.648;2023-04-15T04:07:13;16.08;;;10.48;;
19004;SDS011;9635;52.078;8.648;2023-04-15T04:12:17;16.45;;;11.55;;
19004;SDS011;9635;52.078;8.648;2023-04-15T04:17:21;17.30;;;11.60;;
19004;SDS011;9635;52.078;8.648;2023-04-15T04:22:24;18.52;;;11.52;;
19004;SDS011;9635;52.078;8.648;2023-04-15T04:27:27;18.92;;;12.00;;
19004;SDS011;9635;52.078;8.648;2023-04-15T04:32:31;18.25;;;11.98;;
19004;SDS011;9635;52.078;8.648;2023-04-15T04:37:34;16.77;;;11.52;;
19004;SDS011;9635;52.078;8.648;2023-04-15T04:42:37;19.98;;;12.70;;
19004;SDS011;9635;52.078;8.648;2023-04-15T04:47:42;19.33;;;12.30;;
19004;SDS011;9635;52.078;8.648;2023-04-15T04:52:44;18.67;;;12.82;;
19004;SDS011;9635;52.078;8.648;2023-04-15T04:57:48;20.23;;;13.02;;
19004;SDS011;9635;52.078;8.648;2023-04-15T05:02:52;20.98;;;12.63;;
19004;SDS011;9635;52.078;8.648;2023-04-15T05:07:56;19.90;;;13.75;;
19004;SDS011;9635;52.078;8.648;2023-04-15T05:12:59;21.60;;;14.13;;
19004;SDS011;9635;52.078;8.648;2023-04-15T05:18:04;22.58;;;13.77;;
19004;SDS011;9635;52.078;8.648;2023-04-15T05:23:07;22.13;;;13.90;;
19004;SDS011;9635;52.078;8.648;2023-04-15T05:28:10;22.20;;;14.77;;
19004;SDS011;9635;52.078;8.648;2023-04-15T05:33:14;23.77;;;15.57;;
19004;SDS011;9635;52.078;8.648;2023-04-15T05:38:17;10.60;;;4.20;;
19004;SDS011;9635;52.078;8.648;2023-04-15T05:43:20;24.88;;;12.55;;
19004;SDS011;9635;52.078;8.648;2023-04-15T05:48:25;25.13;;;15.18;;
19004;SDS011;9635;52.078;8.648;2023-04-15T05:53:27;16.10;;;10.82;;
19004;SDS011;9635;52.078;8.648;2023-04-15T05:58:30;21.42;;;14.82;;
19004;SDS011;9635;52.078;8.648;2023-04-15T06:03:35;23.83;;;14.95;;
19004;SDS011;9635;52.078;8.648;2023-04-15T06:08:38;23.83;;;15.10;;
19004;SDS011;9635;52.078;8.648;2023-04-15T06:13:41;22.90;;;15.85;;
19004;SDS011;9635;52.078;8.648;2023-04-15T06:18:45;29.10;;;16.33;;
19004;SDS011;9635;52.078;8.648;2023-04-15T06:23:48;27.48;;;16.50;;
19004;SDS011;9635;52.078;8.648;2023-04-15T06:28:51;27.90;;;16.90;;
19004;SDS011;9635;52.078;8.648;2023-04-15T06:33:55;27.35;;;17.92;;
19004;SDS011;9635;52.078;8.648;2023-04-15T06:38:58;31.75;;;19.25;;
19004;SDS011;9635;52.078;8.648;2023-04-15T06:44:02;39.53;;;22.73;;
19004;SDS011;9635;52.078;8.648;2023-04-15T06:49:06;48.55;;;27.40;;
19004;SDS011;9635;52.078;8.648;2023-04-15T06:54:09;53.45;;;27.83;;
19004;SDS011;9635;52.078;8.648;2023-04-15T06:59:12;47.60;;;26.83;;
19004;SDS011;9635;52.078;8.648;2023-04-15T07:04:17;43.58;;;23.40;;
19004;SDS011;9635;52.078;8.648;2023-04-15T07:09:20;44.20;;;23.58;;
19004;SDS011;9635;52.078;8.648;2023-04-15T07:14:24;43.67;;;23.88;;
19004;SDS011;9635;52.078;8.648;2023-04-15T07:19:28;44.65;;;24.13;;
19004;SDS011;9635;52.078;8.648;2023-04-15T07:24:31;50.00;;;24.33;;
19004;SDS011;9635;52.078;8.648;2023-04-15T07:29:34;54.50;;;24.52;;
19004;SDS011;9635;52.078;8.648;2023-04-15T07:34:38;57.40;;;24.80;;
19004;SDS011;9635;52.078;8.648;2023-04-15T07:39:41;54.20;;;24.27;;
19004;SDS011;9635;52.078;8.648;2023-04-15T07:44:44;55.40;;;23.45;;
19004;SDS011;9635;52.078;8.648;2023-04-15T07:49:49;48.38;;;23.48;;
19004;SDS011;9635;52.078;8.648;2023-04-15T07:54:52;45.78;;;21.98;;
19004;SDS011;9635;52.078;8.648;2023-04-15T07:59:56;41.42;;;19.70;;
19004;SDS011;9635;52.078;8.648;2023-04-15T08:05:00;43.28;;;19.83;;
19004;SDS011;9635;52.078;8.648;2023-04-15T08:10:04;42.30;;;20.58;;
19004;SDS011;9635;52.078;8.648;2023-04-15T08:15:08;38.03;;;19.60;;
19004;SDS011;9635;52.078;8.648;2023-04-15T08:20:13;29.77;;;17.52;;
19004;SDS011;9635;52.078;8.648;2023-04-15T08:25:18;39.35;;;18.52;;
19004;SDS011;9635;52.078;8.648;2023-04-15T08:30:21;37.80;;;19.15;;
19004;SDS011;9635;52.078;8.648;2023-04-15T08:35:26;34.15;;;17.70;;
19004;SDS011;9635;52.078;8.648;2023-04-15T08:40:30;31.58;;;15.60;;
19004;SDS011;9635;52.078;8.648;2023-04-15T08:45:42;29.95;;;16.48;;
19004;SDS011;9635;52.078;8.648;2023-04-15T08:50:48;31.52;;;17.27;;
19004;SDS011;9635;52.078;8.648;2023-04-15T08:55:52;30.85;;;16.50;;
19004;SDS011;9635;52.078;8.648;2023-04-15T09:00:58;29.45;;;17.17;;
19004;SDS011;9635;52.078;8.648;2023-04-15T09:06:04;27.00;;;15.70;;
19004;SDS011;9635;52.078;8.648;2023-04-15T09:11:08;27.98;;;16.55;;
19004;SDS011;9635;52.078;8.648;2023-04-15T09:16:11;26.20;;;14.20;;
19004;SDS011;9635;52.078;8.648;2023-04-15T09:21:17;21.95;;;13.45;;
19004;SDS011;9635;52.078;8.648;2023-04-15T09:26:29;21.10;;;13.45;;
19004;SDS011;9635;52.078;8.648;2023-04-15T09:31:32;22.50;;;13.15;;
19004;SDS011;9635;52.078;8.648;2023-04-15T09:36:55;23.55;;;12.38;;
19004;SDS011;9635;52.078;8.648;2023-04-15T09:42:05;22.58;;;13.40;;
19004;SDS011;9635;52.078;8.648;2023-04-15T09:47:09;22.55;;;13.15;;
19004;SDS011;9635;52.078;8.648;2023-04-15T09:52:30;18.65;;;11.50;;
19004;SDS011;9635;52.078;8.648;2023-04-15T09:57:33;20.63;;;11.52;;
19004;SDS011;9635;52.078;8.648;2023-04-15T10:02:38;19.52;;;12.27;;
19004;SDS011;9635;52.078;8.648;2023-04-15T10:07:44;19.88;;;11.23;;
19004;SDS011;9635;52.078;8.648;2023-04-15T10:12:48;19.25;;;11.15;;
19004;SDS011;9635;52.078;8.648;2023-04-15T10:17:53;18.65;;;10.55;;
19004;SDS011;9635;52.078;8.648;2023-04-15T10:22:59;16.88;;;10.68;;
19004;SDS011;9635;52.078;8.648;2023-04-15T10:28:03;17.38;;;10.27;;
19004;SDS011;9635;52.078;8.648;2023-04-15T10:33:07;15.60;;;10.68;;
19004;SDS011;9635;52.078;8.648;2023-04-15T10:43:35;15.38;;;9.27;;
19004;SDS011;9635;52.078;8.648;2023-04-15T10:48:43;14.50;;;9.82;;
19004;SDS011;9635;52.078;8.648;2023-04-15T10:53:52;16.05;;;10.57;;
19004;SDS011;9635;52.078;8.648;2023-04-15T10:58:58;15.35;;;10.52;;
19004;SDS011;9635;52.078;8.648;2023-04-15T11:04:02;16.10;;;11.00;;
19004;SDS011;9635;52.078;8.648;2023-04-15T11:09:07;17.58;;;10.90;;
19004;SDS011;9635;52.078;8.648;2023-04-15T11:14:13;16.63;;;12.02;;
19004;SDS011;9635;52.078;8.648;2023-04-15T11:19:17;16.25;;;11.02;;
19004;SDS011;9635;52.078;8.648;2023-04-15T11:24:24;17.60;;;12.35;;
19004;SDS011;9635;52.078;8.648;2023-04-15T11:29:28;13.38;;;10.18;;
19004;SDS011;9635;52.078;8.648;2023-04-15T11:34:32;15.82;;;10.95;;
19004;SDS011;9635;52.078;8.648;2023-04-15T11:39:38;17.15;;;10.77;;
19004;SDS011;9635;52.078;8.648;2023-04-15T11:44:40;14.90;;;9.77;;
19004;SDS011;9635;52.078;8.648;2023-04-15T11:49:43;14.27;;;10.45;;
19004;SDS011;9635;52.078;8.648;2023-04-15T11:54:48;14.43;;;10.10;;
19004;SDS011;9635;52.078;8.648;2023-04-15T11:59:53;13.05;;;8.70;;
19004;SDS011;9635;52.078;8.648;2023-04-15T12:05:01;8.20;;;7.35;;
19004;SDS011;9635;52.078;8.648;2023-04-15T12:10:07;10.35;;;7.90;;
19004;SDS011;9635;52.078;8.648;2023-04-15T12:15:09;12.35;;;9.43;;
19004;SDS011;9635;52.078;8.648;2023-04-15T12:20:12;10.45;;;8.48;;
19004;SDS011;9635;52.078;8.648;2023-04-15T12:25:18;8.77;;;7.45;;
19004;SDS011;9635;52.078;8.648;2023-04-15T12:30:21;9.45;;;7.72;;
19004;SDS011;9635;52.078;8.648;2023-04-15T12:35:24;10.38;;;8.10;;
19004;SDS011;9635;52.078;8.648;2023-04-15T12:40:28;9.45;;;8.02;;
19004;SDS011;9635;52.078;8.648;2023-04-15T12:45:31;10.18;;;7.93;;
19004;SDS011;9635;52.078;8.648;2023-04-15T12:50:34;9.15;;;7.63;;
19004;SDS011;9635;52.078;8.648;2023-04-15T12:55:39;10.05;;;7.65;;
19004;SDS011;9635;52.078;8.648;2023-04-15T13:00:42;11.48;;;7.97;;
19004;SDS011;9635;52.078;8.648;2023-04-15T13:05:45;12.13;;;9.48;;
19004;SDS011;9635;52.078;8.648;2023-04-15T13:10:49;10.82;;;8.60;;
19004;SDS011;9635;52.078;8.648;2023-04-15T13:15:52;11.35;;;9.77;;
19004;SDS011;9635;52.078;8.648;2023-04-15T13:20:55;13.10;;;9.77;;
19004;SDS011;9635;52.078;8.648;2023-04-15T13:25:59;13.73;;;9.77;;
19004;SDS011;9635;52.078;8.648;2023-04-15T13:31:02;16.08;;;10.90;;
19004;SDS011;9635;52.078;8.648;2023-04-15T13:36:06;14.00;;;11.05;;
19004;SDS011;9635;52.078;8.648;2023-04-15T13:41:11;14.40;;;11.60;;
19004;SDS011;9635;52.078;8.648;2023-04-15T13:46:14;15.85;;;11.20;;
19004;SDS011;9635;52.078;8.648;2023-04-15T13:51:17;15.43;;;10.95;;
19004;SDS011;9635;52.078;8.648;2023-04-15T13:56:21;16.92;;;10.32;;
19004;SDS011;9635;52.078;8.648;2023-04-15T14:01:24;15.90;;;10.50;;
19004;SDS011;9635;52.078;8.648;2023-04-15T14:06:27;15.88;;;11.48;;
19004;SDS011;9635;52.078;8.648;2023-04-15T14:11:33;19.13;;;12.05;;
19004;SDS011;9635;52.078;8.648;2023-04-15T14:16:37;18.02;;;11.85;;
19004;SDS011;9635;52.078;8.648;2023-04-15T14:21:40;20.73;;;11.88;;
19004;SDS011;9635;52.078;8.648;2023-04-15T14:26:44;22.85;;;14.25;;
19004;SDS011;9635;52.078;8.648;2023-04-15T14:31:47;22.30;;;15.05;;
19004;SDS011;9635;52.078;8.648;2023-04-15T14:42:14;23.67;;;14.90;;
19004;SDS011;9635;52.078;8.648;2023-04-15T14:47:17;22.50;;;15.25;;
19004;SDS011;9635;52.078;8.648;2023-04-15T14:52:20;25.85;;;16.10;;
19004;SDS011;9635;52.078;8.648;2023-04-15T14:57:24;27.52;;;16.38;;
19004;SDS011;9635;52.078;8.648;2023-04-15T15:02:27;26.20;;;17.02;;
19004;SDS011;9635;52.078;8.648;2023-04-15T15:07:33;27.90;;;16.33;;
19004;SDS011;9635;52.078;8.648;2023-04-15T15:12:37;26.17;;;17.38;;
19004;SDS011;9635;52.078;8.648;2023-04-15T15:17:40;27.58;;;16.50;;
19004;SDS011;9635;52.078;8.648;2023-04-15T15:22:43;27.90;;;15.35;;
19004;SDS011;9635;52.078;8.648;2023-04-15T15:27:47;30.77;;;16.45;;
19004;SDS011;9635;52.078;8.648;2023-04-15T15:32:51;26.38;;;15.57;;
19004;SDS011;9635;52.078;8.648;2023-04-15T15:37:54;28.80;;;15.65;;
19004;SDS011;9635;52.078;8.648;2023-04-15T15:42:58;24.38;;;14.70;;
19004;SDS011;9635;52.078;8.648;2023-04-15T15:48:01;26.45;;;14.77;;
19004;SDS011;9635;52.078;8.648;2023-04-15T15:53:04;24.60;;;14.48;;
19004;SDS011;9635;52.078;8.648;2023-04-15T15:58:08;27.92;;;15.52;;
19004;SDS011;9635;52.078;8.648;2023-04-15T16:03:11;31.05;;;15.73;;
19004;SDS011;9635;52.078;8.648;2023-04-15T16:08:14;32.60;;;18.08;;
19004;SDS011;9635;52.078;8.648;2023-04-15T16:13:18;36.67;;;16.95;;
19004;SDS011;9635;52.078;8.648;2023-04-15T16:18:21;31.13;;;16.25;;
19004;SDS011;9635;52.078;8.648;2023-04-15T16:23:24;34.63;;;16.50;;
19004;SDS011;9635;52.078;8.648;2023-04-15T16:28:28;34.00;;;17.10;;
19004;SDS011;9635;52.078;8.648;2023-04-15T16:33:31;28.77;;;15.85;;
19004;SDS011;9635;52.078;8.648;2023-04-15T16:38:34;35.10;;;18.00;;
19004;SDS011;9635;52.078;8.648;2023-04-15T16:43:38;43.95;;;19.80;;
19004;SDS011;9635;52.078;8.648;2023-04-15T16:48:41;44.42;;;20.60;;
19004;SDS011;9635;52.078;8.648;2023-04-15T16:53:44;49.40;;;23.48;;
19004;SDS011;9635;52.078;8.648;2023-04-15T16:58:48;55.13;;;24.45;;
19004;SDS011;9635;52.078;8.648;2023-04-15T17:03:51;55.13;;;23.80;;
19004;SDS011;9635;52.078;8.648;2023-04-15T17:08:56;55.65;;;25.95;;
19004;SDS011;9635;52.078;8.648;2023-04-15T17:14:00;60.85;;;27.27;;
19004;SDS011;9635;52.078;8.648;2023-04-15T17:19:03;50.45;;;26.10;;
19004;SDS011;9635;52.078;8.648;2023-04-15T17:24:06;57.95;;;28.10;;
19004;SDS011;9635;52.078;8.648;2023-04-15T17:29:11;54.83;;;27.48;;
19004;SDS011;9635;52.078;8.648;2023-04-15T17:34:13;61.60;;;28.17;;
19004;SDS011;9635;52.078;8.648;2023-04-15T17:39:16;68.97;;;29.90;;
19004;SDS011;9635;52.078;8.648;2023-04-15T17:44:21;73.70;;;29.70;;
19004;SDS011;9635;52.078;8.648;2023-04-15T17:49:25;64.53;;;30.70;;
19004;SDS011;9635;52.078;8.648;2023-04-15T17:54:28;66.93;;;30.55;;
19004;SDS011;9635;52.078;8.648;2023-04-15T17:59:32;77.13;;;31.00;;
19004;SDS011;9635;52.078;8.648;2023-04-15T18:04:37;76.65;;;34.08;;
19004;SDS011;9635;52.078;8.648;2023-04-15T18:09:40;83.32;;;34.83;;
19004;SDS011;9635;52.078;8.648;2023-04-15T18:14:46;79.68;;;33.47;;
19004;SDS011;9635;52.078;8.648;2023-04-15T18:19:48;75.72;;;32.40;;
19004;SDS011;9635;52.078;8.648;2023-04-15T18:24:51;84.72;;;33.10;;
19004;SDS011;9635;52.078;8.648;2023-04-15T18:29:56;90.47;;;36.63;;
19004;SDS011;9635;52.078;8.648;2023-04-15T18:34:59;82.30;;;34.20;;
19004;SDS011;9635;52.078;8.648;2023-04-15T18:40:02;82.22;;;36.25;;
19004;SDS011;9635;52.078;8.648;2023-04-15T18:45:07;84.70;;;35.58;;
19004;SDS011;9635;52.078;8.648;2023-04-15T18:50:11;86.13;;;34.33;;
19004;SDS011;9635;52.078;8.648;2023-04-15T18:55:14;89.63;;;35.53;;
19004;SDS011;9635;52.078;8.648;2023-04-15T19:00:20;87.15;;;36.30;;
19004;SDS011;9635;52.078;8.648;2023-04-15T19:05:23;89.78;;;35.17;;
19004;SDS011;9635;52.078;8.648;2023-04-15T19:10:27;85.13;;;35.75;;
19004;SDS011;9635;52.078;8.648;2023-04-15T19:15:31;82.75;;;36.75;;
19004;SDS011;9635;52.078;8.648;2023-04-15T19:20:34;90.28;;;36.10;;
19004;SDS011;9635;52.078;8.648;2023-04-15T19:25:40;103.05;;;40.08;;
19004;SDS011;9635;52.078;8.648;2023-04-15T19:30:44;97.55;;;36.85;;
19004;SDS011;9635;52.078;8.648;2023-04-15T19:35:47;84.20;;;37.97;;
19004;SDS011;9635;52.078;8.648;2023-04-15T19:40:50;106.50;;;40.03;;
19004;SDS011;9635;52.078;8.648;2023-04-15T19:45:54;107.15;;;39.47;;
19004;SDS011;9635;52.078;8.648;2023-04-15T19:50:57;100.72;;;37.85;;
19004;SDS011;9635;52.078;8.648;2023-04-15T19:56:00;100.03;;;38.17;;
19004;SDS011;9635;52.078;8.648;2023-04-15T20:01:05;105.82;;;40.30;;
19004;SDS011;9635;52.078;8.648;2023-04-15T20:06:08;101.38;;;39.85;;
19004;SDS011;9635;52.078;8.648;2023-04-15T20:11:11;109.70;;;42.45;;
19004;SDS011;9635;52.078;8.648;2023-04-15T20:16:17;122.15;;;45.05;;
19004;SDS011;9635;52.078;8.648;2023-04-15T20:21:20;126.85;;;48.90;;
19004;SDS011;9635;52.078;8.648;2023-04-15T20:26:23;118.25;;;47.53;;
19004;SDS011;9635;52.078;8.648;2023-04-15T20:31:28;115.60;;;49.15;;
19004;SDS011;9635;52.078;8.648;2023-04-15T20:36:31;126.43;;;50.25;;
19004;SDS011;9635;52.078;8.648;2023-04-15T20:41:34;128.52;;;48.92;;
19004;SDS011;9635;52.078;8.648;2023-04-15T20:46:38;120.72;;;50.15;;
19004;SDS011;9635;52.078;8.648;2023-04-15T20:51:41;103.72;;;46.95;;
19004;SDS011;9635;52.078;8.648;2023-04-15T20:56:44;110.80;;;48.65;;
19004;SDS011;9635;52.078;8.648;2023-04-15T21:01:49;111.18;;;48.70;;
19004;SDS011;9635;52.078;8.648;2023-04-15T21:06:52;109.40;;;47.47;;
19004;SDS011;9635;52.078;8.648;2023-04-15T21:11:55;114.13;;;49.42;;
19004;SDS011;9635;52.078;8.648;2023-04-15T21:22:41;101.20;;;47.78;;
19004;SDS011;9635;52.078;8.648;2023-04-15T21:27:43;109.07;;;50.58;;
19004;SDS011;9635;52.078;8.648;2023-04-15T21:32:46;96.65;;;47.80;;
19004;SDS011;9635;52.078;8.648;2023-04-15T21:37:50;104.10;;;49.10;;
19004;SDS011;9635;52.078;8.648;2023-04-15T21:42:53;112.22;;;49.97;;
19004;SDS011;9635;52.078;8.648;2023-04-15T21:47:56;100.75;;;49.00;;
19004;SDS011;9635;52.078;8.648;2023-04-15T21:53:10;95.32;;;47.50;;
19004;SDS011;9635;52.078;8.648;2023-04-15T21:58:13;100.00;;;46.97;;
19004;SDS011;9635;52.078;8.648;2023-04-15T22:03:16;104.57;;;47.22;;
19004;SDS011;9635;52.078;8.648;2023-04-15T22:08:21;102.60;;;48.42;;
19004;SDS011;9635;52.078;8.648;2023-04-15T22:13:24;95.78;;;50.45;;
19004;SDS011;9635;52.078;8.648;2023-04-15T22:18:27;99.90;;;50.95;;
19004;SDS011;9635;52.078;8.648;2023-04-15T22:23:31;92.20;;;47.97;;
19004;SDS011;9635;52.078;8.648;2023-04-15T22:28:34;97.05;;;48.50;;
19004;SDS011;9635;52.078;8.648;2023-04-15T22:33:37;100.43;;;47.95;;
19004;SDS011;9635;52.078;8.648;2023-04-15T22:38:41;95.00;;;48.30;;
19004;SDS011;9635;52.078;8.648;2023-04-15T22:43:44;96.47;;;49.30;;
19004;SDS011;9635;52.078;8.648;2023-04-15T22:48:47;87.63;;;48.58;;
19004;SDS011;9635;52.078;8.648;2023-04-15T22:53:51;90.78;;;48.58;;
19004;SDS011;9635;52.078;8.648;2023-04-15T22:58:55;94.15;;;46.53;;
19004;SDS011;9635;52.078;8.648;2023-04-15T23:03:57;94.22;;;49.67;;
19004;SDS011;9635;52.078;8.648;2023-04-15T23:09:22;93.43;;;48.63;;
19004;SDS011;9635;52.078;8.648;2023-04-15T23:14:25;100.35;;;50.42;;
19004;SDS011;9635;52.078;8.648;2023-04-15T23:19:28;85.25;;;48.53;;
19004;SDS011;9635;52.078;8.648;2023-04-15T23:24:32;90.60;;;47.13;;
19004;SDS011;9635;52.078;8.648;2023-04-15T23:29:35;90.78;;;45.35;;
19004;SDS011;9635;52.078;8.648;2023-04-15T23:34:38;84.32;;;47.88;;
19004;SDS011;9635;52.078;8.648;2023-04-15T23:39:42;88.03;;;48.05;;
19004;SDS011;9635;52.078;8.648;2023-04-15T23:44:45;80.45;;;45.97;;
19004;SDS011;9635;52.078;8.648;2023-04-15T23:49:48;78.38;;;46.20;;
19004;SDS011;9635;52.078;8.648;2023-04-15T23:54:52;79.55;;;44.42;;
19004;SDS011;9635;52.078;8.648;2023-04-15T23:59:55;83.60;;;45.63;;
